sensor_id;sensor_type;location;lat;lon;timestamp;P1;durP1;ratioP1;P2;durP2;ratioP2
43835;SDS011;39345;43.964;25.340;2023-06-10T00:02:28;10.73;;;5.63;;
43835;SDS011;39345;43.964;25.340;2023-06-10T00:04:55;10.07;;;5.35;;
43835;SDS011;39345;43.964;25.340;2023-06-10T00:07:23;12.95;;;6.05;;
43835;SDS011;39345;43.964;25.340;2023-06-10T00:09:51;9.77;;;5.18;;
43835;SDS011;39345;43.964;25.340;2023-06-10T00:12:19;11.52;;;5.65;;
43835;SDS011;39345;43.964;25.340;2023-06-10T00:14:47;8.32;;;4.88;;
43835;SDS011;39345;43.964;25.340;2023-06-10T00:17:16;10.43;;;5.32;;
43835;SDS011;39345;43.964;25.340;2023-06-10T00:19:44;10.10;;;5.20;;
43835;SDS011;39345;43.964;25.340;2023-06-10T00:22:13;9.15;;;5.35;;
43835;SDS011;39345;43.964;25.340;2023-06-10T00:24:41;8.35;;;5.13;;
43835;SDS011;39345;43.964;25.340;2023-06-10T00:27:08;9.18;;;5.28;;
43835;SDS011;39345;43.964;25.340;2023-06-10T00:29:36;9.57;;;5.22;;
43835;SDS011;39345;43.964;25.340;2023-06-10T00:32:05;11.65;;;5.10;;
43835;SDS011;39345;43.964;25.340;2023-06-10T00:34:34;11.93;;;5.65;;
43835;SDS011;39345;43.964;25.340;2023-06-10T00:37:02;11.57;;;5.70;;
43835;SDS011;39345;43.964;25.340;2023-06-10T00:39:30;10.30;;;5.10;;
43835;SDS011;39345;43.964;25.340;2023-06-10T00:41:57;9.43;;;5.53;;
43835;SDS011;39345;43.964;25.340;2023-06-10T00:44:26;8.80;;;5.30;;
43835;SDS011;39345;43.964;25.340;2023-06-10T00:46:53;13.52;;;5.78;;
43835;SDS011;39345;43.964;25.340;2023-06-10T00:49:22;8.32;;;5.53;;
43835;SDS011;39345;43.964;25.340;2023-06-10T00:51:50;12.45;;;5.65;;
43835;SDS011;39345;43.964;25.340;2023-06-10T00:54:19;10.02;;;5.22;;
43835;SDS011;39345;43.964;25.340;2023-06-10T00:56:47;9.95;;;5.88;;
43835;SDS011;39345;43.964;25.340;2023-06-10T00:59:14;12.55;;;6.20;;
43835;SDS011;39345;43.964;25.340;2023-06-10T01:02:18;13.05;;;6.15;;
43835;SDS011;39345;43.964;25.340;2023-06-10T01:10:43;12.15;;;6.07;;
43835;SDS011;39345;43.964;25.340;2023-06-10T01:13:10;13.27;;;5.85;;
43835;SDS011;39345;43.964;25.340;2023-06-10T01:15:38;10.88;;;5.97;;
43835;SDS011;39345;43.964;25.340;2023-06-10T01:18:09;8.32;;;5.47;;
43835;SDS011;39345;43.964;25.340;2023-06-10T01:20:42;8.98;;;6.03;;
43835;SDS011;39345;43.964;25.340;2023-06-10T01:23:10;10.90;;;5.70;;
43835;SDS011;39345;43.964;25.340;2023-06-10T01:25:39;11.15;;;5.90;;
43835;SDS011;39345;43.964;25.340;2023-06-10T01:30:43;10.73;;;5.57;;
43835;SDS011;39345;43.964;25.340;2023-06-10T01:33:12;12.47;;;6.20;;
43835;SDS011;39345;43.964;25.340;2023-06-10T01:35:42;13.85;;;6.50;;
43835;SDS011;39345;43.964;25.340;2023-06-10T01:38:11;10.40;;;6.22;;
43835;SDS011;39345;43.964;25.340;2023-06-10T01:40:40;11.02;;;6.10;;
43835;SDS011;39345;43.964;25.340;2023-06-10T01:43:08;9.70;;;6.28;;
43835;SDS011;39345;43.964;25.340;2023-06-10T01:45:35;9.95;;;6.03;;
43835;SDS011;39345;43.964;25.340;2023-06-10T01:48:03;9.52;;;5.90;;
43835;SDS011;39345;43.964;25.340;2023-06-10T01:50:31;10.65;;;6.00;;
43835;SDS011;39345;43.964;25.340;2023-06-10T01:52:59;10.93;;;6.07;;
43835;SDS011;39345;43.964;25.340;2023-06-10T01:55:26;10.77;;;6.15;;
43835;SDS011;39345;43.964;25.340;2023-06-10T01:57:54;12.75;;;6.05;;
43835;SDS011;39345;43.964;25.340;2023-06-10T02:00:22;11.43;;;6.70;;
43835;SDS011;39345;43.964;25.340;2023-06-10T02:02:50;15.25;;;7.10;;
43835;SDS011;39345;43.964;25.340;2023-06-10T02:05:18;8.80;;;6.47;;
43835;SDS011;39345;43.964;25.340;2023-06-10T02:07:47;14.27;;;6.93;;
43835;SDS011;39345;43.964;25.340;2023-06-10T02:10:15;9.98;;;6.03;;
43835;SDS011;39345;43.964;25.340;2023-06-10T02:12:42;13.00;;;6.22;;
43835;SDS011;39345;43.964;25.340;2023-06-10T02:15:10;10.50;;;6.90;;
43835;SDS011;39345;43.964;25.340;2023-06-10T02:17:37;11.52;;;6.75;;
43835;SDS011;39345;43.964;25.340;2023-06-10T02:20:05;11.90;;;6.85;;
43835;SDS011;39345;43.964;25.340;2023-06-10T02:22:33;12.63;;;7.25;;
43835;SDS011;39345;43.964;25.340;2023-06-10T02:25:01;12.90;;;6.45;;
43835;SDS011;39345;43.964;25.340;2023-06-10T02:27:30;17.20;;;7.28;;
43835;SDS011;39345;43.964;25.340;2023-06-10T02:29:59;11.35;;;6.28;;
43835;SDS011;39345;43.964;25.340;2023-06-10T02:32:26;11.43;;;6.78;;
43835;SDS011;39345;43.964;25.340;2023-06-10T02:34:54;11.38;;;6.97;;
43835;SDS011;39345;43.964;25.340;2023-06-10T02:37:24;12.65;;;6.90;;
43835;SDS011;39345;43.964;25.340;2023-06-10T02:39:52;10.75;;;6.45;;
43835;SDS011;39345;43.964;25.340;2023-06-10T02:42:20;13.13;;;7.20;;
43835;SDS011;39345;43.964;25.340;2023-06-10T02:44:48;13.63;;;7.30;;
43835;SDS011;39345;43.964;25.340;2023-06-10T02:47:26;14.35;;;6.80;;
43835;SDS011;39345;43.964;25.340;2023-06-10T02:49:54;15.88;;;7.63;;
43835;SDS011;39345;43.964;25.340;2023-06-10T02:52:21;16.65;;;7.20;;
43835;SDS011;39345;43.964;25.340;2023-06-10T02:54:51;13.88;;;7.53;;
43835;SDS011;39345;43.964;25.340;2023-06-10T02:57:18;16.15;;;7.00;;
43835;SDS011;39345;43.964;25.340;2023-06-10T02:59:45;17.63;;;7.47;;
43835;SDS011;39345;43.964;25.340;2023-06-10T03:02:13;13.80;;;6.75;;
43835;SDS011;39345;43.964;25.340;2023-06-10T03:04:47;14.27;;;7.25;;
43835;SDS011;39345;43.964;25.340;2023-06-10T03:07:18;14.25;;;7.60;;
43835;SDS011;39345;43.964;25.340;2023-06-10T03:09:49;16.63;;;7.75;;
43835;SDS011;39345;43.964;25.340;2023-06-10T03:12:17;16.42;;;7.80;;
43835;SDS011;39345;43.964;25.340;2023-06-10T03:14:47;16.52;;;7.80;;
43835;SDS011;39345;43.964;25.340;2023-06-10T03:17:15;13.73;;;7.97;;
43835;SDS011;39345;43.964;25.340;2023-06-10T03:19:44;10.90;;;7.50;;
43835;SDS011;39345;43.964;25.340;2023-06-10T03:22:13;14.25;;;7.75;;
43835;SDS011;39345;43.964;25.340;2023-06-10T03:24:54;12.98;;;7.10;;
43835;SDS011;39345;43.964;25.340;2023-06-10T03:27:24;12.00;;;7.13;;
43835;SDS011;39345;43.964;25.340;2023-06-10T03:29:58;17.77;;;7.40;;
43835;SDS011;39345;43.964;25.340;2023-06-10T03:32:26;17.00;;;8.68;;
43835;SDS011;39345;43.964;25.340;2023-06-10T03:34:54;13.30;;;7.43;;
43835;SDS011;39345;43.964;25.340;2023-06-10T03:37:26;13.13;;;7.40;;
43835;SDS011;39345;43.964;25.340;2023-06-10T03:39:54;12.93;;;7.30;;
43835;SDS011;39345;43.964;25.340;2023-06-10T03:42:22;11.98;;;7.60;;
43835;SDS011;39345;43.964;25.340;2023-06-10T03:44:49;13.77;;;7.25;;
43835;SDS011;39345;43.964;25.340;2023-06-10T03:47:17;11.65;;;7.45;;
43835;SDS011;39345;43.964;25.340;2023-06-10T03:49:45;13.32;;;7.35;;
43835;SDS011;39345;43.964;25.340;2023-06-10T03:52:13;13.43;;;7.20;;
43835;SDS011;39345;43.964;25.340;2023-06-10T03:54:41;17.70;;;7.65;;
43835;SDS011;39345;43.964;25.340;2023-06-10T03:57:08;10.85;;;6.82;;
43835;SDS011;39345;43.964;25.340;2023-06-10T03:59:36;12.27;;;7.15;;
43835;SDS011;39345;43.964;25.340;2023-06-10T04:02:03;13.73;;;7.32;;
43835;SDS011;39345;43.964;25.340;2023-06-10T04:04:33;12.10;;;7.03;;
43835;SDS011;39345;43.964;25.340;2023-06-10T04:07:01;11.82;;;7.90;;
43835;SDS011;39345;43.964;25.340;2023-06-10T04:09:29;12.10;;;7.65;;
43835;SDS011;39345;43.964;25.340;2023-06-10T04:11:57;13.43;;;7.80;;
43835;SDS011;39345;43.964;25.340;2023-06-10T04:14:24;12.43;;;7.60;;
43835;SDS011;39345;43.964;25.340;2023-06-10T04:16:52;12.85;;;7.70;;
43835;SDS011;39345;43.964;25.340;2023-06-10T04:19:20;14.23;;;7.70;;
43835;SDS011;39345;43.964;25.340;2023-06-10T04:21:47;12.60;;;7.53;;
43835;SDS011;39345;43.964;25.340;2023-06-10T04:24:15;19.13;;;9.05;;
43835;SDS011;39345;43.964;25.340;2023-06-10T04:26:44;15.60;;;9.05;;
43835;SDS011;39345;43.964;25.340;2023-06-10T04:29:12;13.40;;;8.55;;
43835;SDS011;39345;43.964;25.340;2023-06-10T04:31:40;14.18;;;7.90;;
43835;SDS011;39345;43.964;25.340;2023-06-10T04:34:08;18.35;;;9.13;;
43835;SDS011;39345;43.964;25.340;2023-06-10T04:36:36;18.88;;;11.02;;
43835;SDS011;39345;43.964;25.340;2023-06-10T04:39:04;17.77;;;12.70;;
43835;SDS011;39345;43.964;25.340;2023-06-10T04:41:33;20.13;;;13.80;;
43835;SDS011;39345;43.964;25.340;2023-06-10T04:44:01;20.38;;;13.82;;
43835;SDS011;39345;43.964;25.340;2023-06-10T04:46:28;26.58;;;18.13;;
43835;SDS011;39345;43.964;25.340;2023-06-10T04:48:58;28.58;;;17.33;;
43835;SDS011;39345;43.964;25.340;2023-06-10T04:51:25;23.48;;;13.88;;
43835;SDS011;39345;43.964;25.340;2023-06-10T04:53:53;24.60;;;12.82;;
43835;SDS011;39345;43.964;25.340;2023-06-10T04:56:21;22.02;;;12.90;;
43835;SDS011;39345;43.964;25.340;2023-06-10T04:58:49;22.35;;;13.38;;
43835;SDS011;39345;43.964;25.340;2023-06-10T05:01:16;30.33;;;12.43;;
43835;SDS011;39345;43.964;25.340;2023-06-10T05:03:44;16.27;;;10.32;;
43835;SDS011;39345;43.964;25.340;2023-06-10T05:06:12;16.30;;;10.07;;
43835;SDS011;39345;43.964;25.340;2023-06-10T05:08:39;15.07;;;9.68;;
43835;SDS011;39345;43.964;25.340;2023-06-10T05:11:07;14.25;;;8.82;;
43835;SDS011;39345;43.964;25.340;2023-06-10T05:13:35;12.73;;;8.82;;
43835;SDS011;39345;43.964;25.340;2023-06-10T05:16:02;14.05;;;8.77;;
43835;SDS011;39345;43.964;25.340;2023-06-10T05:18:30;12.45;;;8.57;;
43835;SDS011;39345;43.964;25.340;2023-06-10T05:20:58;13.15;;;8.30;;
43835;SDS011;39345;43.964;25.340;2023-06-10T05:23:25;14.15;;;8.50;;
43835;SDS011;39345;43.964;25.340;2023-06-10T05:25:54;19.27;;;10.90;;
43835;SDS011;39345;43.964;25.340;2023-06-10T05:28:21;15.85;;;9.77;;
43835;SDS011;39345;43.964;25.340;2023-06-10T05:30:49;14.63;;;9.32;;
43835;SDS011;39345;43.964;25.340;2023-06-10T05:33:16;16.48;;;8.95;;
43835;SDS011;39345;43.964;25.340;2023-06-10T05:35:44;16.05;;;9.68;;
43835;SDS011;39345;43.964;25.340;2023-06-10T05:38:11;16.08;;;8.63;;
43835;SDS011;39345;43.964;25.340;2023-06-10T05:40:39;13.40;;;8.95;;
43835;SDS011;39345;43.964;25.340;2023-06-10T05:43:06;16.17;;;9.25;;
43835;SDS011;39345;43.964;25.340;2023-06-10T05:45:36;17.20;;;9.68;;
43835;SDS011;39345;43.964;25.340;2023-06-10T05:48:04;15.57;;;9.88;;
43835;SDS011;39345;43.964;25.340;2023-06-10T05:50:32;16.25;;;10.25;;
43835;SDS011;39345;43.964;25.340;2023-06-10T05:53:04;16.15;;;9.85;;
43835;SDS011;39345;43.964;25.340;2023-06-10T05:55:33;15.90;;;10.75;;
43835;SDS011;39345;43.964;25.340;2023-06-10T05:58:01;14.65;;;9.60;;
43835;SDS011;39345;43.964;25.340;2023-06-10T06:00:28;14.40;;;9.02;;
43835;SDS011;39345;43.964;25.340;2023-06-10T06:02:56;17.02;;;10.02;;
43835;SDS011;39345;43.964;25.340;2023-06-10T06:05:25;15.20;;;9.13;;
43835;SDS011;39345;43.964;25.340;2023-06-10T06:07:52;13.38;;;8.65;;
43835;SDS011;39345;43.964;25.340;2023-06-10T06:10:20;16.80;;;8.65;;
43835;SDS011;39345;43.964;25.340;2023-06-10T06:12:47;11.40;;;8.55;;
43835;SDS011;39345;43.964;25.340;2023-06-10T06:15:15;16.80;;;9.45;;
43835;SDS011;39345;43.964;25.340;2023-06-10T06:17:42;16.50;;;9.02;;
43835;SDS011;39345;43.964;25.340;2023-06-10T06:20:10;18.42;;;9.00;;
43835;SDS011;39345;43.964;25.340;2023-06-10T06:22:38;15.95;;;8.82;;
43835;SDS011;39345;43.964;25.340;2023-06-10T06:25:05;21.60;;;9.05;;
43835;SDS011;39345;43.964;25.340;2023-06-10T06:27:34;18.02;;;9.25;;
43835;SDS011;39345;43.964;25.340;2023-06-10T06:30:02;12.40;;;8.85;;
43835;SDS011;39345;43.964;25.340;2023-06-10T06:32:30;14.77;;;8.90;;
43835;SDS011;39345;43.964;25.340;2023-06-10T06:34:57;15.75;;;9.02;;
43835;SDS011;39345;43.964;25.340;2023-06-10T06:37:25;18.38;;;9.60;;
43835;SDS011;39345;43.964;25.340;2023-06-10T06:40:06;22.30;;;9.48;;
43835;SDS011;39345;43.964;25.340;2023-06-10T06:42:34;20.63;;;9.38;;
43835;SDS011;39345;43.964;25.340;2023-06-10T06:45:22;15.30;;;8.60;;
43835;SDS011;39345;43.964;25.340;2023-06-10T06:47:49;12.98;;;8.75;;
43835;SDS011;39345;43.964;25.340;2023-06-10T06:50:17;16.65;;;8.75;;
43835;SDS011;39345;43.964;25.340;2023-06-10T06:52:45;17.83;;;9.10;;
43835;SDS011;39345;43.964;25.340;2023-06-10T06:55:12;17.95;;;8.85;;
43835;SDS011;39345;43.964;25.340;2023-06-10T06:57:40;17.13;;;9.48;;
43835;SDS011;39345;43.964;25.340;2023-06-10T07:00:07;16.52;;;9.05;;
43835;SDS011;39345;43.964;25.340;2023-06-10T07:02:35;18.67;;;9.30;;
43835;SDS011;39345;43.964;25.340;2023-06-10T07:05:03;18.15;;;8.73;;
43835;SDS011;39345;43.964;25.340;2023-06-10T07:07:32;16.02;;;9.18;;
43835;SDS011;39345;43.964;25.340;2023-06-10T07:09:59;19.13;;;9.13;;
43835;SDS011;39345;43.964;25.340;2023-06-10T07:12:34;15.77;;;9.60;;
43835;SDS011;39345;43.964;25.340;2023-06-10T07:15:05;13.45;;;9.20;;
43835;SDS011;39345;43.964;25.340;2023-06-10T07:17:42;14.02;;;9.32;;
43835;SDS011;39345;43.964;25.340;2023-06-10T07:20:10;17.30;;;9.50;;
43835;SDS011;39345;43.964;25.340;2023-06-10T07:22:38;16.38;;;9.13;;
43835;SDS011;39345;43.964;25.340;2023-06-10T07:25:14;15.18;;;9.15;;
43835;SDS011;39345;43.964;25.340;2023-06-10T07:27:42;19.08;;;9.02;;
43835;SDS011;39345;43.964;25.340;2023-06-10T07:30:10;17.02;;;9.13;;
43835;SDS011;39345;43.964;25.340;2023-06-10T07:32:40;17.15;;;9.48;;
43835;SDS011;39345;43.964;25.340;2023-06-10T07:35:08;19.20;;;8.85;;
43835;SDS011;39345;43.964;25.340;2023-06-10T07:37:37;17.73;;;8.88;;
43835;SDS011;39345;43.964;25.340;2023-06-10T07:40:05;22.80;;;9.80;;
43835;SDS011;39345;43.964;25.340;2023-06-10T07:42:34;18.35;;;9.52;;
43835;SDS011;39345;43.964;25.340;2023-06-10T07:45:07;13.77;;;9.00;;
43835;SDS011;39345;43.964;25.340;2023-06-10T07:47:37;16.23;;;10.10;;
43835;SDS011;39345;43.964;25.340;2023-06-10T07:50:07;22.90;;;10.70;;
43835;SDS011;39345;43.964;25.340;2023-06-10T07:52:35;18.75;;;9.65;;
43835;SDS011;39345;43.964;25.340;2023-06-10T07:55:03;15.95;;;9.82;;
43835;SDS011;39345;43.964;25.340;2023-06-10T07:57:32;19.13;;;10.75;;
43835;SDS011;39345;43.964;25.340;2023-06-10T08:00:03;16.17;;;9.40;;
43835;SDS011;39345;43.964;25.340;2023-06-10T08:02:37;14.75;;;9.00;;
43835;SDS011;39345;43.964;25.340;2023-06-10T08:05:06;17.17;;;9.02;;
43835;SDS011;39345;43.964;25.340;2023-06-10T08:07:34;15.00;;;8.48;;
43835;SDS011;39345;43.964;25.340;2023-06-10T08:10:01;15.90;;;9.05;;
43835;SDS011;39345;43.964;25.340;2023-06-10T08:12:30;14.32;;;8.95;;
43835;SDS011;39345;43.964;25.340;2023-06-10T08:14:58;12.07;;;8.05;;
43835;SDS011;39345;43.964;25.340;2023-06-10T08:17:25;12.63;;;8.30;;
43835;SDS011;39345;43.964;25.340;2023-06-10T08:19:53;13.27;;;8.52;;
43835;SDS011;39345;43.964;25.340;2023-06-10T08:22:20;13.73;;;7.72;;
43835;SDS011;39345;43.964;25.340;2023-06-10T08:24:48;15.95;;;8.20;;
43835;SDS011;39345;43.964;25.340;2023-06-10T08:27:15;13.18;;;7.90;;
43835;SDS011;39345;43.964;25.340;2023-06-10T08:29:43;10.18;;;7.82;;
43835;SDS011;39345;43.964;25.340;2023-06-10T08:32:11;14.80;;;7.32;;
43835;SDS011;39345;43.964;25.340;2023-06-10T08:34:38;10.63;;;7.32;;
43835;SDS011;39345;43.964;25.340;2023-06-10T08:37:07;10.35;;;7.10;;
43835;SDS011;39345;43.964;25.340;2023-06-10T08:39:34;10.90;;;7.47;;
43835;SDS011;39345;43.964;25.340;2023-06-10T08:42:15;18.83;;;10.05;;
43835;SDS011;39345;43.964;25.340;2023-06-10T08:44:48;13.63;;;8.50;;
43835;SDS011;39345;43.964;25.340;2023-06-10T08:47:16;13.85;;;7.72;;
43835;SDS011;39345;43.964;25.340;2023-06-10T08:49:45;15.15;;;8.27;;
43835;SDS011;39345;43.964;25.340;2023-06-10T08:52:17;12.93;;;7.28;;
43835;SDS011;39345;43.964;25.340;2023-06-10T08:57:17;12.13;;;7.53;;
43835;SDS011;39345;43.964;25.340;2023-06-10T08:59:48;11.73;;;7.60;;
43835;SDS011;39345;43.964;25.340;2023-06-10T09:02:16;15.23;;;10.70;;
43835;SDS011;39345;43.964;25.340;2023-06-10T09:04:46;14.27;;;8.02;;
43835;SDS011;39345;43.964;25.340;2023-06-10T09:07:17;23.08;;;17.67;;
43835;SDS011;39345;43.964;25.340;2023-06-10T09:09:46;26.42;;;19.27;;
43835;SDS011;39345;43.964;25.340;2023-06-10T09:12:14;44.47;;;36.95;;
43835;SDS011;39345;43.964;25.340;2023-06-10T09:14:42;72.68;;;65.30;;
43835;SDS011;39345;43.964;25.340;2023-06-10T09:17:10;36.45;;;28.13;;
43835;SDS011;39345;43.964;25.340;2023-06-10T09:19:38;11.73;;;8.50;;
43835;SDS011;39345;43.964;25.340;2023-06-10T09:22:06;12.68;;;6.95;;
43835;SDS011;39345;43.964;25.340;2023-06-10T09:24:33;11.15;;;6.82;;
43835;SDS011;39345;43.964;25.340;2023-06-10T09:27:02;26.70;;;22.88;;
43835;SDS011;39345;43.964;25.340;2023-06-10T09:29:30;17.63;;;12.20;;
43835;SDS011;39345;43.964;25.340;2023-06-10T09:31:58;16.65;;;9.15;;
43835;SDS011;39345;43.964;25.340;2023-06-10T09:34:34;16.23;;;8.80;;
43835;SDS011;39345;43.964;25.340;2023-06-10T09:37:03;14.15;;;8.73;;
43835;SDS011;39345;43.964;25.340;2023-06-10T09:39:32;17.55;;;8.60;;
43835;SDS011;39345;43.964;25.340;2023-06-10T09:41:59;14.43;;;8.82;;
43835;SDS011;39345;43.964;25.340;2023-06-10T09:44:27;12.93;;;8.65;;
43835;SDS011;39345;43.964;25.340;2023-06-10T09:46:54;13.02;;;7.95;;
43835;SDS011;39345;43.964;25.340;2023-06-10T09:49:25;17.17;;;9.60;;
43835;SDS011;39345;43.964;25.340;2023-06-10T09:51:56;18.55;;;10.27;;
43835;SDS011;39345;43.964;25.340;2023-06-10T09:54:23;17.42;;;10.35;;
43835;SDS011;39345;43.964;25.340;2023-06-10T09:56:51;14.38;;;9.90;;
43835;SDS011;39345;43.964;25.340;2023-06-10T09:59:28;15.50;;;9.82;;
43835;SDS011;39345;43.964;25.340;2023-06-10T10:02:00;14.73;;;9.93;;
43835;SDS011;39345;43.964;25.340;2023-06-10T10:04:27;15.27;;;9.02;;
43835;SDS011;39345;43.964;25.340;2023-06-10T10:06:55;15.13;;;9.23;;
43835;SDS011;39345;43.964;25.340;2023-06-10T10:09:22;20.38;;;10.18;;
43835;SDS011;39345;43.964;25.340;2023-06-10T10:11:50;13.75;;;9.70;;
43835;SDS011;39345;43.964;25.340;2023-06-10T10:14:19;13.10;;;8.30;;
43835;SDS011;39345;43.964;25.340;2023-06-10T10:16:47;12.60;;;8.48;;
43835;SDS011;39345;43.964;25.340;2023-06-10T10:19:16;13.27;;;7.82;;
43835;SDS011;39345;43.964;25.340;2023-06-10T10:21:56;13.32;;;8.10;;
43835;SDS011;39345;43.964;25.340;2023-06-10T10:25:13;14.93;;;7.47;;
43835;SDS011;39345;43.964;25.340;2023-06-10T10:27:17;11.38;;;6.90;;
43835;SDS011;39345;43.964;25.340;2023-06-10T10:29:46;12.68;;;6.43;;
43835;SDS011;39345;43.964;25.340;2023-06-10T10:32:14;13.00;;;6.65;;
43835;SDS011;39345;43.964;25.340;2023-06-10T10:34:45;12.80;;;6.63;;
43835;SDS011;39345;43.964;25.340;2023-06-10T10:37:19;11.48;;;5.25;;
43835;SDS011;39345;43.964;25.340;2023-06-10T10:39:47;7.30;;;4.50;;
43835;SDS011;39345;43.964;25.340;2023-06-10T10:42:16;7.45;;;4.22;;
43835;SDS011;39345;43.964;25.340;2023-06-10T10:44:44;9.57;;;4.50;;
43835;SDS011;39345;43.964;25.340;2023-06-10T10:47:12;7.63;;;4.47;;
43835;SDS011;39345;43.964;25.340;2023-06-10T10:49:40;6.72;;;4.40;;
43835;SDS011;39345;43.964;25.340;2023-06-10T10:52:13;10.40;;;5.70;;
43835;SDS011;39345;43.964;25.340;2023-06-10T10:54:45;6.32;;;4.35;;
43835;SDS011;39345;43.964;25.340;2023-06-10T10:57:14;8.82;;;4.00;;
43835;SDS011;39345;43.964;25.340;2023-06-10T11:05:08;8.73;;;4.20;;
43835;SDS011;39345;43.964;25.340;2023-06-10T11:07:37;9.98;;;4.38;;
43835;SDS011;39345;43.964;25.340;2023-06-10T11:10:13;8.23;;;4.30;;
43835;SDS011;39345;43.964;25.340;2023-06-10T11:15:12;5.40;;;4.25;;
43835;SDS011;39345;43.964;25.340;2023-06-10T11:20:45;7.82;;;4.15;;
43835;SDS011;39345;43.964;25.340;2023-06-10T11:33:58;10.95;;;5.97;;
43835;SDS011;39345;43.964;25.340;2023-06-10T11:36:26;8.63;;;5.38;;
43835;SDS011;39345;43.964;25.340;2023-06-10T11:38:57;7.45;;;4.43;;
43835;SDS011;39345;43.964;25.340;2023-06-10T11:41:26;7.35;;;4.70;;
43835;SDS011;39345;43.964;25.340;2023-06-10T11:43:54;6.65;;;4.45;;
43835;SDS011;39345;43.964;25.340;2023-06-10T11:46:25;7.97;;;4.22;;
43835;SDS011;39345;43.964;25.340;2023-06-10T11:48:55;9.98;;;4.55;;
43835;SDS011;39345;43.964;25.340;2023-06-10T11:51:26;13.10;;;8.32;;
43835;SDS011;39345;43.964;25.340;2023-06-10T11:53:54;7.40;;;4.18;;
43835;SDS011;39345;43.964;25.340;2023-06-10T11:56:27;8.35;;;4.32;;
43835;SDS011;39345;43.964;25.340;2023-06-10T11:58:59;6.18;;;4.15;;
43835;SDS011;39345;43.964;25.340;2023-06-10T12:01:31;9.18;;;4.00;;
43835;SDS011;39345;43.964;25.340;2023-06-10T12:04:04;6.57;;;4.05;;
43835;SDS011;39345;43.964;25.340;2023-06-10T12:07:05;7.93;;;4.10;;
43835;SDS011;39345;43.964;25.340;2023-06-10T12:09:26;9.25;;;4.22;;
43835;SDS011;39345;43.964;25.340;2023-06-10T12:11:58;4.78;;;3.70;;
43835;SDS011;39345;43.964;25.340;2023-06-10T12:17:14;5.53;;;3.80;;
43835;SDS011;39345;43.964;25.340;2023-06-10T12:19:42;6.30;;;3.78;;
43835;SDS011;39345;43.964;25.340;2023-06-10T12:22:09;6.80;;;3.88;;
43835;SDS011;39345;43.964;25.340;2023-06-10T12:24:57;8.80;;;3.80;;
43835;SDS011;39345;43.964;25.340;2023-06-10T12:27:31;8.90;;;3.58;;
43835;SDS011;39345;43.964;25.340;2023-06-10T12:30:00;6.60;;;3.30;;
43835;SDS011;39345;43.964;25.340;2023-06-10T12:32:41;6.43;;;3.22;;
43835;SDS011;39345;43.964;25.340;2023-06-10T12:35:09;4.80;;;3.47;;
43835;SDS011;39345;43.964;25.340;2023-06-10T12:37:42;7.80;;;3.60;;
43835;SDS011;39345;43.964;25.340;2023-06-10T12:40:09;6.22;;;3.50;;
43835;SDS011;39345;43.964;25.340;2023-06-10T12:42:38;7.47;;;4.60;;
43835;SDS011;39345;43.964;25.340;2023-06-10T12:45:05;6.20;;;3.25;;
43835;SDS011;39345;43.964;25.340;2023-06-10T12:47:39;7.25;;;4.25;;
43835;SDS011;39345;43.964;25.340;2023-06-10T12:50:08;6.95;;;3.90;;
43835;SDS011;39345;43.964;25.340;2023-06-10T12:52:36;5.07;;;3.25;;
43835;SDS011;39345;43.964;25.340;2023-06-10T12:55:05;6.15;;;3.75;;
43835;SDS011;39345;43.964;25.340;2023-06-10T12:57:33;5.47;;;3.38;;
43835;SDS011;39345;43.964;25.340;2023-06-10T13:00:03;5.85;;;3.38;;
43835;SDS011;39345;43.964;25.340;2023-06-10T13:02:35;5.95;;;3.00;;
43835;SDS011;39345;43.964;25.340;2023-06-10T13:05:05;8.82;;;3.80;;
43835;SDS011;39345;43.964;25.340;2023-06-10T13:07:33;5.22;;;3.58;;
43835;SDS011;39345;43.964;25.340;2023-06-10T13:10:01;8.15;;;3.78;;
43835;SDS011;39345;43.964;25.340;2023-06-10T13:12:29;6.30;;;3.90;;
43835;SDS011;39345;43.964;25.340;2023-06-10T13:15:13;6.55;;;3.92;;
43835;SDS011;39345;43.964;25.340;2023-06-10T13:17:41;5.90;;;4.15;;
43835;SDS011;39345;43.964;25.340;2023-06-10T13:20:09;9.55;;;4.47;;
43835;SDS011;39345;43.964;25.340;2023-06-10T13:22:37;6.90;;;4.40;;
43835;SDS011;39345;43.964;25.340;2023-06-10T13:25:05;7.63;;;3.88;;
43835;SDS011;39345;43.964;25.340;2023-06-10T13:27:36;7.07;;;4.50;;
43835;SDS011;39345;43.964;25.340;2023-06-10T13:30:09;8.80;;;5.53;;
43835;SDS011;39345;43.964;25.340;2023-06-10T13:32:36;7.93;;;5.10;;
43835;SDS011;39345;43.964;25.340;2023-06-10T13:35:07;14.93;;;6.18;;
43835;SDS011;39345;43.964;25.340;2023-06-10T13:37:35;8.18;;;4.90;;
43835;SDS011;39345;43.964;25.340;2023-06-10T13:40:03;8.18;;;5.30;;
43835;SDS011;39345;43.964;25.340;2023-06-10T13:42:31;5.70;;;4.80;;
43835;SDS011;39345;43.964;25.340;2023-06-10T13:44:59;9.73;;;5.05;;
43835;SDS011;39345;43.964;25.340;2023-06-10T13:47:26;5.55;;;4.30;;
43835;SDS011;39345;43.964;25.340;2023-06-10T13:49:54;8.60;;;4.30;;
43835;SDS011;39345;43.964;25.340;2023-06-10T13:52:21;6.07;;;4.70;;
43835;SDS011;39345;43.964;25.340;2023-06-10T13:54:52;7.63;;;4.78;;
43835;SDS011;39345;43.964;25.340;2023-06-10T13:57:19;9.30;;;4.85;;
43835;SDS011;39345;43.964;25.340;2023-06-10T13:59:47;8.38;;;4.80;;
43835;SDS011;39345;43.964;25.340;2023-06-10T14:02:14;8.13;;;5.03;;
43835;SDS011;39345;43.964;25.340;2023-06-10T14:04:43;7.25;;;4.90;;
43835;SDS011;39345;43.964;25.340;2023-06-10T14:07:10;7.78;;;5.15;;
43835;SDS011;39345;43.964;25.340;2023-06-10T14:09:38;10.90;;;5.53;;
43835;SDS011;39345;43.964;25.340;2023-06-10T14:12:05;8.45;;;5.18;;
43835;SDS011;39345;43.964;25.340;2023-06-10T14:14:33;11.25;;;5.10;;
43835;SDS011;39345;43.964;25.340;2023-06-10T14:17:00;7.28;;;4.93;;
43835;SDS011;39345;43.964;25.340;2023-06-10T14:19:29;7.63;;;4.38;;
43835;SDS011;39345;43.964;25.340;2023-06-10T14:21:57;8.07;;;4.20;;
43835;SDS011;39345;43.964;25.340;2023-06-10T14:24:24;6.10;;;3.92;;
43835;SDS011;39345;43.964;25.340;2023-06-10T14:26:52;5.93;;;3.95;;
43835;SDS011;39345;43.964;25.340;2023-06-10T14:29:20;8.38;;;4.38;;
43835;SDS011;39345;43.964;25.340;2023-06-10T14:31:48;8.90;;;4.78;;
43835;SDS011;39345;43.964;25.340;2023-06-10T14:34:15;7.13;;;4.13;;
43835;SDS011;39345;43.964;25.340;2023-06-10T14:36:45;7.32;;;4.30;;
43835;SDS011;39345;43.964;25.340;2023-06-10T14:39:13;9.43;;;4.57;;
43835;SDS011;39345;43.964;25.340;2023-06-10T14:41:40;7.75;;;5.95;;
43835;SDS011;39345;43.964;25.340;2023-06-10T14:44:08;11.63;;;6.80;;
43835;SDS011;39345;43.964;25.340;2023-06-10T14:46:36;9.45;;;4.55;;
43835;SDS011;39345;43.964;25.340;2023-06-10T14:49:04;6.07;;;4.40;;
43835;SDS011;39345;43.964;25.340;2023-06-10T14:51:31;8.02;;;4.35;;
43835;SDS011;39345;43.964;25.340;2023-06-10T14:54:02;7.95;;;4.28;;
43835;SDS011;39345;43.964;25.340;2023-06-10T14:56:29;7.00;;;4.70;;
43835;SDS011;39345;43.964;25.340;2023-06-10T14:58:57;10.05;;;5.15;;
43835;SDS011;39345;43.964;25.340;2023-06-10T15:01:24;6.75;;;4.60;;
43835;SDS011;39345;43.964;25.340;2023-06-10T15:03:52;10.00;;;5.45;;
43835;SDS011;39345;43.964;25.340;2023-06-10T15:06:19;8.65;;;4.63;;
43835;SDS011;39345;43.964;25.340;2023-06-10T15:08:50;8.25;;;4.55;;
43835;SDS011;39345;43.964;25.340;2023-06-10T15:11:18;9.30;;;4.03;;